createdAt,value
2022-11-29T00:01:40.362Z,101229.75
2022-11-29T00:04:07.710Z,101235.88
2022-11-29T00:06:36.173Z,101229.88
2022-11-29T00:09:11.608Z,101234.25
2022-11-29T00:11:59.879Z,101232.56
2022-11-29T00:14:29.083Z,101236.16
2022-11-29T00:17:02.432Z,101240.53
2022-11-29T00:19:35.524Z,101240.59
2022-11-29T00:22:04.431Z,101237.25
2022-11-29T00:24:32.562Z,101239.06
2022-11-29T00:27:00.890Z,101242.66
2022-11-29T00:29:29.939Z,101234.94
2022-11-29T00:31:57.220Z,101236.66
2022-11-29T00:34:24.579Z,101235.88
2022-11-29T00:36:51.991Z,101248.00
2022-11-29T00:39:19.481Z,101252.34
2022-11-29T00:41:46.690Z,101242.84
2022-11-29T00:44:19.600Z,101242.78
2022-11-29T00:46:48.630Z,101245.44
2022-11-29T00:49:16.639Z,101240.25
2022-11-29T00:51:43.918Z,101249.84
2022-11-29T00:54:11.096Z,101235.19
2022-11-29T00:56:38.355Z,101252.53
2022-11-29T00:59:05.521Z,101246.53
2022-11-29T01:01:32.748Z,101248.38
2022-11-29T01:04:02.423Z,101249.38
2022-11-29T01:06:29.571Z,101252.06
2022-11-29T01:08:56.823Z,101252.13
2022-11-29T01:11:27.542Z,101252.97
2022-11-29T01:14:00.298Z,101249.53
2022-11-29T01:16:30.621Z,101247.81
2022-11-29T01:18:57.867Z,101252.13
2022-11-29T01:21:25.400Z,101255.56
2022-11-29T01:23:54.234Z,101248.59
2022-11-29T01:26:27.154Z,101256.34
2022-11-29T01:28:57.040Z,101251.13
2022-11-29T01:31:31.134Z,101252.03
2022-11-29T01:34:02.585Z,101251.22
2022-11-29T01:36:30.624Z,101254.78
2022-11-29T01:39:01.661Z,101252.31
2022-11-29T01:41:33.527Z,101256.69
2022-11-29T01:44:07.412Z,101261.09
2022-11-29T01:46:42.944Z,101268.94
2022-11-29T01:49:24.285Z,101271.63
2022-11-29T01:52:15.037Z,101269.13
2022-11-29T01:54:50.883Z,101268.31
2022-11-29T01:57:19.748Z,101271.81
2022-11-29T01:59:54.521Z,101267.56
2022-11-29T02:02:36.839Z,101261.53
2022-11-29T02:05:05.762Z,101266.75
2022-11-29T02:07:33.925Z,101266.84
2022-11-29T02:10:02.980Z,101260.84
2022-11-29T02:13:16.587Z,101270.38
2022-11-29T02:16:05.063Z,101271.31
2022-11-29T02:19:11.581Z,101282.69
2022-11-29T02:22:15.202Z,101281.84
2022-11-29T02:25:19.786Z,101284.50
2022-11-29T02:28:46.949Z,101286.25
2022-11-29T02:32:01.615Z,101288.88
2022-11-29T02:34:54.443Z,101280.25
2022-11-29T02:38:27.068Z,101275.84
2022-11-29T02:41:42.523Z,101283.69
2022-11-29T02:45:08.678Z,101286.31
2022-11-29T02:48:05.510Z,101286.31
2022-11-29T02:51:11.403Z,101288.03
2022-11-29T02:54:16.650Z,101287.16
2022-11-29T02:56:58.224Z,101287.19
2022-11-29T02:59:51.289Z,101290.63
2022-11-29T03:03:24.189Z,101301.03
2022-11-29T03:06:33.949Z,101316.66
2022-11-29T03:09:32.215Z,101316.56
2022-11-29T03:12:41.708Z,101316.53
2022-11-29T03:15:33.442Z,101315.59
2022-11-29T03:18:55.970Z,101316.47
2022-11-29T03:21:44.409Z,101316.44
2022-11-29T03:24:46.041Z,101328.47
2022-11-29T03:27:31.316Z,101319.75
2022-11-29T03:30:05.666Z,101327.50
2022-11-29T03:32:53.621Z,101332.72
2022-11-29T03:35:47.699Z,101332.63
2022-11-29T03:38:43.964Z,101336.00
2022-11-29T03:41:51.936Z,101332.53
2022-11-29T03:44:33.522Z,101336.00
2022-11-29T03:47:19.819Z,101338.50
2022-11-29T03:50:13.318Z,101341.09
2022-11-29T03:53:04.039Z,101348.97
2022-11-29T03:55:54.056Z,101353.31
2022-11-29T03:59:02.672Z,101349.94
2022-11-29T04:02:15.007Z,101350.84
2022-11-29T04:05:22.397Z,101351.69
2022-11-29T04:08:17.670Z,101364.72
2022-11-29T04:11:18.697Z,101366.47
2022-11-29T04:14:14.550Z,101363.03
2022-11-29T04:16:59.836Z,101369.06
2022-11-29T04:20:07.885Z,101372.56
2022-11-29T04:23:05.782Z,101376.03
2022-11-29T04:25:41.758Z,101370.91
2022-11-29T04:29:14.457Z,101385.66
2022-11-29T04:32:10.406Z,101387.44
2022-11-29T04:35:36.857Z,101386.44
2022-11-29T04:38:35.484Z,101386.28
2022-11-29T04:41:46.308Z,101390.44
2022-11-29T04:44:50.805Z,101390.34
2022-11-29T04:48:24.879Z,101392.00
2022-11-29T04:52:05.706Z,101399.72
2022-11-29T04:55:31.206Z,101397.03
2022-11-29T04:58:41.203Z,101408.25
2022-11-29T05:02:14.071Z,101403.88
2022-11-29T05:04:52.874Z,101404.72
2022-11-29T05:08:25.243Z,101408.09
2022-11-29T05:11:35.084Z,101413.31
2022-11-29T05:14:29.348Z,101415.84
2022-11-29T05:17:35.974Z,101415.78
2022-11-29T05:21:35.078Z,101421.88
2022-11-29T05:24:47.590Z,101434.91
2022-11-29T05:27:40.819Z,101428.00
2022-11-29T05:30:25.580Z,101436.66
2022-11-29T05:33:16.458Z,101421.94
2022-11-29T05:36:01.704Z,101442.75
2022-11-29T05:38:55.361Z,101443.59
2022-11-29T05:42:02.763Z,101450.53
2022-11-29T05:44:47.606Z,101451.38
2022-11-29T05:47:35.845Z,101457.50
2022-11-29T05:50:09.015Z,101461.03
2022-11-29T05:53:29.274Z,101461.13
2022-11-29T05:56:34.351Z,101470.69
2022-11-29T05:59:15.403Z,101469.91
2022-11-29T06:02:32.788Z,101474.31
2022-11-29T06:05:22.932Z,101474.41
2022-11-29T06:08:50.605Z,101489.25
2022-11-29T06:11:53.619Z,101485.78
2022-11-29T06:14:38.288Z,101484.84
2022-11-29T06:17:56.028Z,101483.97
2022-11-29T06:20:43.490Z,101489.91
2022-11-29T06:23:58.831Z,101492.47
2022-11-29T06:27:05.864Z,101491.53
2022-11-29T06:30:00.212Z,101488.94
2022-11-29T06:33:07.965Z,101499.41
2022-11-29T06:36:22.828Z,101512.41
2022-11-29T06:38:50.419Z,101515.03
2022-11-29T06:41:24.879Z,101514.97
2022-11-29T06:43:52.743Z,101510.63
2022-11-29T06:47:05.118Z,101516.75
2022-11-29T06:49:53.436Z,101516.81
2022-11-29T06:52:43.002Z,101532.44
2022-11-29T06:55:45.722Z,101544.66
2022-11-29T06:58:48.981Z,101542.94
2022-11-29T07:01:57.272Z,101536.94
2022-11-29T07:05:08.611Z,101547.34
2022-11-29T07:07:36.870Z,101552.63
2022-11-29T07:10:09.429Z,101557.84
2022-11-29T07:12:41.182Z,101563.97
2022-11-29T07:15:20.703Z,101551.88
2022-11-29T07:18:57.209Z,101560.69
2022-11-29T07:22:04.211Z,101567.66
2022-11-29T07:25:13.520Z,101577.25
2022-11-29T07:28:01.134Z,101578.09
2022-11-29T07:31:06.079Z,101580.78
2022-11-29T07:34:31.786Z,101579.06
2022-11-29T07:37:30.395Z,101580.72
2022-11-29T07:40:40.284Z,101579.03
2022-11-29T07:44:03.975Z,101583.34
2022-11-29T07:46:31.202Z,101585.94
2022-11-29T07:48:58.467Z,101586.88
2022-11-29T07:51:26.114Z,101589.50
2022-11-29T07:53:53.932Z,101591.19
2022-11-29T07:56:21.153Z,101591.16
2022-11-29T07:58:48.554Z,101594.63
2022-11-29T08:01:15.813Z,101596.34
2022-11-29T08:03:43.147Z,101591.16
2022-11-29T08:06:10.611Z,101595.50
2022-11-29T08:08:43.802Z,101598.09
2022-11-29T08:11:15.377Z,101597.22
2022-11-29T08:13:42.603Z,101605.03
2022-11-29T08:16:15.922Z,101598.91
2022-11-29T08:18:43.372Z,101597.13
2022-11-29T08:21:10.600Z,101594.53
2022-11-29T08:23:37.763Z,101597.06
2022-11-29T08:26:06.455Z,101596.13
2022-11-29T08:28:33.950Z,101600.47
2022-11-29T08:31:09.535Z,101603.88
2022-11-29T08:33:41.385Z,101609.06
2022-11-29T08:36:13.409Z,101609.09
2022-11-29T08:38:41.129Z,101610.84
2022-11-29T08:41:12.946Z,101612.59
2022-11-29T08:43:41.090Z,101616.00
2022-11-29T08:46:11.467Z,101623.78
2022-11-29T08:48:42.380Z,101624.59
2022-11-29T08:51:09.681Z,101628.00
2022-11-29T08:53:43.163Z,101633.09
2022-11-29T08:59:06.134Z,101642.50
2022-11-29T09:01:33.625Z,101646.69
2022-11-29T09:04:03.098Z,101645.75
2022-11-29T09:06:42.882Z,101648.28
2022-11-29T09:09:10.318Z,101655.16
2022-11-29T09:11:37.621Z,101652.47
2022-11-29T09:14:11.661Z,101663.63
2022-11-29T09:16:39.027Z,101664.53
2022-11-29T09:19:07.667Z,101665.34
2022-11-29T09:21:36.798Z,101669.69
2022-11-29T09:24:06.496Z,101678.41
2022-11-29T09:26:38.058Z,101672.31
2022-11-29T09:29:07.020Z,101679.19
2022-11-29T09:31:35.513Z,101681.75
2022-11-29T09:34:03.065Z,101682.66
2022-11-29T09:36:31.442Z,101683.59
2022-11-29T09:39:02.886Z,101692.25
2022-11-29T09:42:07.101Z,101688.78
2022-11-29T09:45:10.786Z,101688.69
2022-11-29T09:48:14.212Z,101692.13
2022-11-29T09:51:12.527Z,101700.88
2022-11-29T09:54:01.756Z,101702.69
2022-11-29T09:56:54.507Z,101705.44
2022-11-29T09:59:35.938Z,101697.69
2022-11-29T10:02:49.967Z,101704.63
2022-11-29T10:05:51.546Z,101705.41
2022-11-29T10:08:42.012Z,101709.72
2022-11-29T10:11:39.762Z,101711.50
2022-11-29T10:14:26.496Z,101708.00
2022-11-29T10:17:17.325Z,101707.09
2022-11-29T10:19:52.935Z,101703.72
2022-11-29T10:22:53.334Z,101710.47
2022-11-29T10:25:54.270Z,101701.75
2022-11-29T10:28:33.519Z,101700.94
2022-11-29T10:31:39.275Z,101699.19
2022-11-29T10:34:21.416Z,101704.38
2022-11-29T10:37:02.272Z,101697.34
2022-11-29T10:39:58.670Z,101693.75
2022-11-29T10:42:47.491Z,101688.34
2022-11-29T10:45:29.426Z,101686.47
2022-11-29T10:48:08.055Z,101701.22
2022-11-29T10:50:37.557Z,101690.03
2022-11-29T10:53:16.630Z,101694.34
2022-11-29T10:55:53.581Z,101696.97
2022-11-29T10:58:28.263Z,101703.91
2022-11-29T11:01:08.924Z,101700.44
2022-11-29T11:03:54.400Z,101703.91
2022-11-29T11:06:45.852Z,101698.69
2022-11-29T11:09:50.373Z,101707.28
2022-11-29T11:12:26.251Z,101708.16
2022-11-29T11:15:30.175Z,101707.22
2022-11-29T11:18:06.511Z,101708.22
2022-11-29T11:20:41.702Z,101705.81
2022-11-29T11:23:42.340Z,101714.63
2022-11-29T11:26:14.690Z,101712.06
2022-11-29T11:29:03.207Z,101709.41
2022-11-29T11:31:40.651Z,101714.56
2022-11-29T11:34:36.139Z,101711.06
2022-11-29T11:37:15.364Z,101716.25
2022-11-29T11:39:45.477Z,101717.03
2022-11-29T11:42:39.544Z,101719.50
2022-11-29T11:45:15.253Z,101731.66
2022-11-29T11:48:01.988Z,101731.72
2022-11-29T11:50:43.879Z,101737.84
2022-11-29T11:53:35.864Z,101739.63
2022-11-29T11:56:13.552Z,101733.50
2022-11-29T11:59:01.607Z,101738.72
2022-11-29T12:01:38.119Z,101740.47
2022-11-29T12:04:37.227Z,101740.50
2022-11-29T12:07:51.833Z,101744.88
2022-11-29T12:10:27.194Z,101734.56
2022-11-29T12:12:57.570Z,101747.56
2022-11-29T12:15:50.279Z,101742.31
2022-11-29T12:18:47.697Z,101744.84
2022-11-29T12:21:24.285Z,101758.72
2022-11-29T12:24:06.559Z,101759.59
2022-11-29T12:26:58.327Z,101763.94
2022-11-29T12:29:33.469Z,101763.03
2022-11-29T12:32:54.981Z,101767.31
2022-11-29T12:35:37.257Z,101767.09
2022-11-29T12:38:33.668Z,101780.97
2022-11-29T12:41:37.373Z,101783.59
2022-11-29T12:44:37.821Z,101793.09
2022-11-29T12:48:05.860Z,101790.47
2022-11-29T12:51:14.450Z,101797.47
2022-11-29T12:54:34.620Z,101785.34
2022-11-29T12:57:48.403Z,101800.94
2022-11-29T13:00:19.948Z,101796.56
2022-11-29T13:03:32.785Z,101796.56
2022-11-29T13:06:13.093Z,101793.88
2022-11-29T13:09:06.032Z,101793.75
2022-11-29T13:12:00.123Z,101795.47
2022-11-29T13:15:13.657Z,101798.06
2022-11-29T13:18:25.617Z,101797.94
2022-11-29T13:21:13.972Z,101805.72
2022-11-29T13:24:16.860Z,101805.53
2022-11-29T13:26:47.634Z,101803.75
2022-11-29T13:29:19.923Z,101803.69
2022-11-29T13:31:48.179Z,101805.41
2022-11-29T13:34:39.519Z,101802.78
2022-11-29T13:38:01.137Z,101809.75
2022-11-29T13:40:43.044Z,101811.47
2022-11-29T13:43:40.913Z,101808.81
2022-11-29T13:46:52.713Z,101811.34
2022-11-29T13:50:26.743Z,101808.66
2022-11-29T13:53:30.693Z,101806.03
2022-11-29T13:56:01.889Z,101805.13
2022-11-29T13:58:29.093Z,101810.31
2022-11-29T14:01:05.524Z,101808.56
2022-11-29T14:04:14.714Z,101815.44
2022-11-29T14:06:46.003Z,101812.88
2022-11-29T14:09:43.431Z,101812.78
2022-11-29T14:12:41.754Z,101809.28
2022-11-29T14:15:16.856Z,101810.13
2022-11-29T14:18:08.898Z,101810.13
2022-11-29T14:20:57.391Z,101815.34
2022-11-29T14:23:38.973Z,101814.41
2022-11-29T14:26:06.111Z,101816.97
2022-11-29T14:28:38.704Z,101818.66
2022-11-29T14:31:09.689Z,101812.53
2022-11-29T14:33:57.939Z,101817.75
2022-11-29T14:36:54.767Z,101819.53
2022-11-29T14:39:42.147Z,101814.41
2022-11-29T14:42:24.447Z,101826.47
2022-11-29T14:45:06.301Z,101824.72
2022-11-29T14:47:49.108Z,101822.94
2022-11-29T14:50:36.528Z,101826.38
2022-11-29T14:53:33.506Z,101830.72
2022-11-29T14:56:32.038Z,101829.00
2022-11-29T14:59:51.489Z,101827.28
2022-11-29T15:03:09.258Z,101825.63
2022-11-29T15:05:45.039Z,101827.47
2022-11-29T15:08:32.307Z,101824.03
2022-11-29T15:11:49.499Z,101824.16
2022-11-29T15:14:45.786Z,101827.69
2022-11-29T15:17:46.834Z,101825.91
2022-11-29T15:20:50.703Z,101832.75
2022-11-29T15:23:19.780Z,101834.41
2022-11-29T15:26:00.522Z,101831.78
2022-11-29T15:28:30.146Z,101836.16
2022-11-29T15:31:13.402Z,101833.53
2022-11-29T15:33:45.045Z,101841.34
2022-11-29T15:36:24.305Z,101847.38
2022-11-29T15:38:59.129Z,101838.63
2022-11-29T15:41:35.624Z,101847.34
2022-11-29T15:44:07.507Z,101846.47
2022-11-29T15:46:36.112Z,101854.28
2022-11-29T15:49:35.527Z,101844.78
2022-11-29T15:52:14.443Z,101851.78
2022-11-29T15:55:03.397Z,101845.72
2022-11-29T15:57:43.054Z,101848.34
2022-11-29T16:00:23.128Z,101849.31
2022-11-29T16:03:06.003Z,101845.03
2022-11-29T16:05:38.732Z,101860.63
2022-11-29T16:08:22.580Z,101857.09
2022-11-29T16:10:53.186Z,101859.72
2022-11-29T16:13:39.148Z,101864.09
2022-11-29T16:16:13.260Z,101865.00
2022-11-29T16:18:45.723Z,101856.38
2022-11-29T16:21:32.544Z,101866.84
2022-11-29T16:24:21.750Z,101867.69
2022-11-29T16:26:51.085Z,101857.25
2022-11-29T16:29:33.853Z,101858.19
2022-11-29T16:32:31.720Z,101851.28
2022-11-29T16:35:23.633Z,101857.47
2022-11-29T16:37:51.635Z,101858.38
2022-11-29T16:40:35.385Z,101863.63
2022-11-29T16:43:47.465Z,101860.19
2022-11-29T16:46:20.717Z,101869.81
2022-11-29T16:48:51.200Z,101871.59
2022-11-29T16:51:39.851Z,101872.53
2022-11-29T16:54:27.933Z,101876.97
2022-11-29T16:56:57.236Z,101878.78
2022-11-29T16:59:28.369Z,101876.22
2022-11-29T17:01:57.137Z,101879.72
2022-11-29T17:04:25.723Z,101876.31
2022-11-29T17:06:57.417Z,101881.53
2022-11-29T17:09:32.511Z,101878.16
2022-11-29T17:12:01.991Z,101878.16
2022-11-29T17:14:30.202Z,101882.44
2022-11-29T17:17:02.181Z,101877.22
2022-11-29T17:19:30.694Z,101879.91
2022-11-29T17:21:58.697Z,101873.91
2022-11-29T17:24:26.125Z,101878.28
2022-11-29T17:26:53.311Z,101882.69
2022-11-29T17:29:20.603Z,101880.94
2022-11-29T17:31:50.473Z,101885.31
2022-11-29T17:34:17.954Z,101885.34
2022-11-29T17:36:46.438Z,101882.78
2022-11-29T17:39:15.792Z,101893.13
2022-11-29T17:41:43.105Z,101893.94
2022-11-29T17:44:10.250Z,101899.13
2022-11-29T17:46:37.937Z,101898.31
2022-11-29T17:49:09.541Z,101906.13
2022-11-29T17:51:55.491Z,101906.97
2022-11-29T17:54:23.410Z,101911.31
2022-11-29T17:56:51.890Z,101902.66
2022-11-29T17:59:19.455Z,101905.22
2022-11-29T18:01:49.626Z,101909.66
2022-11-29T18:04:17.107Z,101924.50
2022-11-29T18:06:49.668Z,101915.78
2022-11-29T18:09:19.452Z,101912.38
2022-11-29T18:11:50.168Z,101925.41
2022-11-29T18:14:24.213Z,101922.75
2022-11-29T18:16:52.067Z,101929.72
2022-11-29T18:19:22.770Z,101928.81
2022-11-29T18:21:51.260Z,101927.09
2022-11-29T18:24:19.393Z,101928.81
2022-11-29T18:26:47.115Z,101939.28
2022-11-29T18:29:14.842Z,101938.47
2022-11-29T18:31:46.053Z,101942.03
2022-11-29T18:34:14.973Z,101939.44
2022-11-29T18:36:51.029Z,101942.97
2022-11-29T18:39:20.222Z,101929.97
2022-11-29T18:41:50.335Z,101925.59
2022-11-29T18:44:29.505Z,101931.69
2022-11-29T18:46:57.742Z,101931.69
2022-11-29T18:49:24.947Z,101938.72
2022-11-29T18:51:52.188Z,101936.16
2022-11-29T18:54:19.597Z,101930.16
2022-11-29T18:56:46.902Z,101934.53
2022-11-29T18:59:17.821Z,101934.53
2022-11-29T19:01:48.314Z,101938.91
2022-11-29T19:04:21.377Z,101946.69
2022-11-29T19:06:49.405Z,101956.25
2022-11-29T19:09:22.219Z,101953.66
2022-11-29T19:11:50.605Z,101953.66
2022-11-29T19:14:19.380Z,101947.59
2022-11-29T19:16:49.399Z,101953.66
2022-11-29T19:19:18.897Z,101958.91
2022-11-29T19:21:46.107Z,101965.91
2022-11-29T19:24:17.578Z,101957.25
2022-11-29T19:26:47.973Z,101960.75
2022-11-29T19:29:16.192Z,101956.53
2022-11-29T19:31:43.580Z,101949.66
2022-11-29T19:34:11.331Z,101954.03
2022-11-29T19:36:43.294Z,101959.28
2022-11-29T19:39:17.183Z,101953.22
2022-11-29T19:41:47.729Z,101948.97
2022-11-29T19:44:15.583Z,101949.81
2022-11-29T19:46:48.756Z,101952.50
2022-11-29T19:49:16.194Z,101944.69
2022-11-29T19:51:43.763Z,101953.38
2022-11-29T19:54:12.034Z,101945.59
2022-11-29T19:56:39.982Z,101950.88
2022-11-29T19:59:08.758Z,101954.41
2022-11-29T20:01:41.274Z,101957.03
2022-11-29T20:04:13.721Z,101964.00
2022-11-29T20:06:42.874Z,101955.38
2022-11-29T20:09:13.472Z,101955.38
2022-11-29T20:11:41.742Z,101955.38
2022-11-29T20:14:12.838Z,101961.44
2022-11-29T20:16:40.813Z,101966.63
2022-11-29T20:19:14.158Z,101966.63
2022-11-29T20:21:48.830Z,101966.69
2022-11-29T20:24:17.787Z,101968.41
2022-11-29T20:26:49.014Z,101969.25
2022-11-29T20:29:17.120Z,101969.31
2022-11-29T20:31:50.217Z,101977.13
2022-11-29T20:34:20.094Z,101973.66
2022-11-29T20:37:36.783Z,101972.84
2022-11-29T20:40:19.355Z,101984.19
2022-11-29T20:43:37.823Z,101985.94
2022-11-29T20:46:05.599Z,101985.97
2022-11-29T20:48:33.280Z,101985.13
2022-11-29T20:51:02.684Z,101994.69
2022-11-29T20:53:40.311Z,101993.81
2022-11-29T20:56:09.804Z,101992.09
2022-11-29T20:58:38.485Z,101997.28
2022-11-29T21:01:07.427Z,101996.44
2022-11-29T21:03:34.823Z,101992.09
2022-11-29T21:06:05.864Z,101989.50
2022-11-29T21:08:34.729Z,101987.78
2022-11-29T21:11:07.426Z,101989.50
2022-11-29T21:13:37.215Z,101987.84
2022-11-29T21:16:05.471Z,101980.91
2022-11-29T21:18:33.911Z,101987.91
2022-11-29T21:21:54.016Z,101985.28
2022-11-29T21:25:05.309Z,101986.16
2022-11-29T21:27:35.356Z,101994.81
2022-11-29T21:30:18.971Z,101987.91
2022-11-29T21:32:47.577Z,101990.53
2022-11-29T21:35:16.293Z,101990.53
2022-11-29T21:37:45.526Z,101993.97
2022-11-29T21:40:14.638Z,101991.31
2022-11-29T21:42:42.267Z,101990.44
2022-11-29T21:45:15.247Z,101999.94
2022-11-29T21:47:44.615Z,102000.78
2022-11-29T21:50:13.757Z,102004.22
2022-11-29T21:52:41.396Z,102001.63
2022-11-29T21:55:09.334Z,102008.56
2022-11-29T21:57:37.616Z,102008.53
2022-11-29T22:00:06.972Z,102009.31
2022-11-29T22:02:34.281Z,102011.88
2022-11-29T22:05:01.565Z,102007.50
2022-11-29T22:07:28.766Z,102006.59
2022-11-29T22:09:55.981Z,102009.97
2022-11-29T22:12:38.282Z,102007.34
2022-11-29T22:15:06.293Z,102007.31
2022-11-29T22:17:33.464Z,102014.25
2022-11-29T22:20:00.583Z,102017.72
2022-11-29T22:22:28.337Z,102015.06
2022-11-29T22:24:55.597Z,102016.81
2022-11-29T22:27:22.755Z,102016.78
2022-11-29T22:29:49.982Z,102006.31
2022-11-29T22:32:17.174Z,102012.38
2022-11-29T22:34:44.853Z,102010.63
2022-11-29T22:37:12.527Z,102009.75
2022-11-29T22:39:39.689Z,102007.13
2022-11-29T22:42:07.756Z,102005.41
2022-11-29T22:44:35.065Z,102014.03
2022-11-29T22:47:02.376Z,102010.50
2022-11-29T22:49:30.075Z,102012.25
2022-11-29T22:51:57.244Z,102014.88
2022-11-29T22:54:24.557Z,102016.56
2022-11-29T22:56:52.424Z,102016.53
2022-11-29T22:59:19.616Z,102015.59
2022-11-29T23:01:47.095Z,102017.31
2022-11-29T23:04:14.418Z,102025.13
2022-11-29T23:06:45.979Z,102025.97
2022-11-29T23:09:22.085Z,102025.09
2022-11-29T23:11:56.111Z,102025.91
2022-11-29T23:14:24.437Z,102029.38
2022-11-29T23:16:52.702Z,102025.00
2022-11-29T23:19:20.712Z,102032.78
2022-11-29T23:21:48.087Z,102038.88
2022-11-29T23:24:16.215Z,102032.91
2022-11-29T23:26:47.305Z,102038.13
2022-11-29T23:29:18.837Z,102038.13
2022-11-29T23:31:47.707Z,102043.38
2022-11-29T23:34:15.559Z,102046.00
2022-11-29T23:36:44.804Z,102042.56
2022-11-29T23:39:15.541Z,102037.38
2022-11-29T23:41:43.756Z,102043.50
2022-11-29T23:44:11.116Z,102044.34
2022-11-29T23:46:38.394Z,102046.13
2022-11-29T23:49:05.561Z,102049.63
2022-11-29T23:51:33.170Z,102044.50
2022-11-29T23:54:00.383Z,102047.09
2022-11-29T23:56:27.971Z,102041.03
2022-11-29T23:58:55.350Z,102044.50
